sensor_id;sensor_type;location;lat;lon;timestamp;P1;durP1;ratioP1;P2;durP2;ratioP2
46008;SDS011;39597;51.438;7.006;2022-08-14T00:01:20;4.72;;;2.40;;
46008;SDS011;39597;51.438;7.006;2022-08-14T00:03:46;4.70;;;2.60;;
46008;SDS011;39597;51.438;7.006;2022-08-14T00:06:11;3.90;;;2.30;;
46008;SDS011;39597;51.438;7.006;2022-08-14T00:08:37;4.72;;;2.35;;
46008;SDS011;39597;51.438;7.006;2022-08-14T00:11:02;4.43;;;2.63;;
46008;SDS011;39597;51.438;7.006;2022-08-14T00:13:27;4.05;;;2.28;;
46008;SDS011;39597;51.438;7.006;2022-08-14T00:15:54;5.60;;;2.47;;
46008;SDS011;39597;51.438;7.006;2022-08-14T00:18:21;5.22;;;2.35;;
46008;SDS011;39597;51.438;7.006;2022-08-14T00:20:47;5.78;;;2.83;;
46008;SDS011;39597;51.438;7.006;2022-08-14T00:23:15;5.25;;;2.50;;
46008;SDS011;39597;51.438;7.006;2022-08-14T00:25:42;5.03;;;2.67;;
46008;SDS011;39597;51.438;7.006;2022-08-14T00:28:11;4.35;;;2.53;;
46008;SDS011;39597;51.438;7.006;2022-08-14T00:30:38;6.68;;;2.70;;
46008;SDS011;39597;51.438;7.006;2022-08-14T00:33:03;5.80;;;2.50;;
46008;SDS011;39597;51.438;7.006;2022-08-14T00:35:29;4.20;;;2.38;;
46008;SDS011;39597;51.438;7.006;2022-08-14T00:37:55;4.53;;;2.40;;
46008;SDS011;39597;51.438;7.006;2022-08-14T00:40:21;4.75;;;2.58;;
46008;SDS011;39597;51.438;7.006;2022-08-14T00:42:47;5.35;;;2.78;;
46008;SDS011;39597;51.438;7.006;2022-08-14T00:45:13;5.03;;;2.58;;
46008;SDS011;39597;51.438;7.006;2022-08-14T00:47:40;5.60;;;2.78;;
46008;SDS011;39597;51.438;7.006;2022-08-14T00:50:08;5.00;;;2.70;;
46008;SDS011;39597;51.438;7.006;2022-08-14T00:52:35;4.93;;;2.55;;
46008;SDS011;39597;51.438;7.006;2022-08-14T00:55:02;4.75;;;2.80;;
46008;SDS011;39597;51.438;7.006;2022-08-14T00:57:30;5.20;;;3.05;;
46008;SDS011;39597;51.438;7.006;2022-08-14T00:59:57;4.72;;;2.67;;
46008;SDS011;39597;51.438;7.006;2022-08-14T01:02:24;4.60;;;2.70;;
46008;SDS011;39597;51.438;7.006;2022-08-14T01:04:51;5.63;;;2.65;;
46008;SDS011;39597;51.438;7.006;2022-08-14T01:07:19;4.97;;;2.65;;
46008;SDS011;39597;51.438;7.006;2022-08-14T01:09:49;5.03;;;2.25;;
46008;SDS011;39597;51.438;7.006;2022-08-14T01:12:18;4.32;;;2.40;;
46008;SDS011;39597;51.438;7.006;2022-08-14T01:14:45;5.13;;;2.90;;
46008;SDS011;39597;51.438;7.006;2022-08-14T01:17:11;5.88;;;3.08;;
46008;SDS011;39597;51.438;7.006;2022-08-14T01:19:37;4.68;;;2.45;;
46008;SDS011;39597;51.438;7.006;2022-08-14T01:22:20;5.40;;;3.00;;
46008;SDS011;39597;51.438;7.006;2022-08-14T01:24:46;4.47;;;2.53;;
46008;SDS011;39597;51.438;7.006;2022-08-14T01:27:15;6.68;;;3.30;;
46008;SDS011;39597;51.438;7.006;2022-08-14T01:29:45;6.28;;;3.15;;
46008;SDS011;39597;51.438;7.006;2022-08-14T01:32:11;4.07;;;2.25;;
46008;SDS011;39597;51.438;7.006;2022-08-14T01:34:37;5.78;;;3.03;;
46008;SDS011;39597;51.438;7.006;2022-08-14T01:37:02;4.68;;;2.83;;
46008;SDS011;39597;51.438;7.006;2022-08-14T01:39:29;5.05;;;3.03;;
46008;SDS011;39597;51.438;7.006;2022-08-14T01:41:55;5.65;;;2.72;;
46008;SDS011;39597;51.438;7.006;2022-08-14T01:44:23;4.88;;;2.67;;
46008;SDS011;39597;51.438;7.006;2022-08-14T01:46:50;6.07;;;3.25;;
46008;SDS011;39597;51.438;7.006;2022-08-14T01:49:18;7.78;;;3.45;;
46008;SDS011;39597;51.438;7.006;2022-08-14T01:51:45;5.93;;;3.17;;
46008;SDS011;39597;51.438;7.006;2022-08-14T01:54:12;5.53;;;2.90;;
46008;SDS011;39597;51.438;7.006;2022-08-14T01:56:42;4.78;;;2.75;;
46008;SDS011;39597;51.438;7.006;2022-08-14T01:59:18;5.13;;;2.95;;
46008;SDS011;39597;51.438;7.006;2022-08-14T02:01:47;5.78;;;3.05;;
46008;SDS011;39597;51.438;7.006;2022-08-14T02:04:15;4.63;;;2.70;;
46008;SDS011;39597;51.438;7.006;2022-08-14T02:06:40;6.35;;;3.08;;
46008;SDS011;39597;51.438;7.006;2022-08-14T02:11:31;5.72;;;2.83;;
46008;SDS011;39597;51.438;7.006;2022-08-14T02:14:06;5.53;;;3.10;;
46008;SDS011;39597;51.438;7.006;2022-08-14T02:16:35;6.07;;;3.20;;
46008;SDS011;39597;51.438;7.006;2022-08-14T02:19:06;5.60;;;3.00;;
46008;SDS011;39597;51.438;7.006;2022-08-14T02:21:34;5.38;;;3.03;;
46008;SDS011;39597;51.438;7.006;2022-08-14T02:24:01;5.68;;;3.13;;
46008;SDS011;39597;51.438;7.006;2022-08-14T02:26:29;5.65;;;3.20;;
46008;SDS011;39597;51.438;7.006;2022-08-14T02:28:58;8.45;;;3.10;;
46008;SDS011;39597;51.438;7.006;2022-08-14T02:31:25;5.95;;;3.72;;
46008;SDS011;39597;51.438;7.006;2022-08-14T02:33:57;6.68;;;3.35;;
46008;SDS011;39597;51.438;7.006;2022-08-14T02:36:29;5.85;;;3.50;;
46008;SDS011;39597;51.438;7.006;2022-08-14T02:38:55;6.00;;;3.25;;
46008;SDS011;39597;51.438;7.006;2022-08-14T02:41:21;5.53;;;3.08;;
46008;SDS011;39597;51.438;7.006;2022-08-14T02:43:47;5.60;;;3.38;;
46008;SDS011;39597;51.438;7.006;2022-08-14T02:46:13;5.60;;;2.97;;
46008;SDS011;39597;51.438;7.006;2022-08-14T02:48:40;5.63;;;3.00;;
46008;SDS011;39597;51.438;7.006;2022-08-14T02:51:13;6.50;;;3.20;;
46008;SDS011;39597;51.438;7.006;2022-08-14T02:53:39;5.38;;;2.95;;
46008;SDS011;39597;51.438;7.006;2022-08-14T02:56:08;6.60;;;2.95;;
46008;SDS011;39597;51.438;7.006;2022-08-14T02:58:37;6.03;;;3.38;;
46008;SDS011;39597;51.438;7.006;2022-08-14T03:01:07;5.82;;;3.30;;
46008;SDS011;39597;51.438;7.006;2022-08-14T03:03:34;12.90;;;3.40;;
46008;SDS011;39597;51.438;7.006;2022-08-14T03:06:01;5.28;;;2.78;;
46008;SDS011;39597;51.438;7.006;2022-08-14T03:08:30;6.53;;;3.00;;
46008;SDS011;39597;51.438;7.006;2022-08-14T03:10:57;5.65;;;2.97;;
46008;SDS011;39597;51.438;7.006;2022-08-14T03:13:23;6.00;;;3.13;;
46008;SDS011;39597;51.438;7.006;2022-08-14T03:15:49;5.38;;;3.15;;
46008;SDS011;39597;51.438;7.006;2022-08-14T03:18:17;5.78;;;3.08;;
46008;SDS011;39597;51.438;7.006;2022-08-14T03:20:43;5.80;;;3.70;;
46008;SDS011;39597;51.438;7.006;2022-08-14T03:23:08;6.03;;;3.45;;
46008;SDS011;39597;51.438;7.006;2022-08-14T03:25:34;5.90;;;3.10;;
46008;SDS011;39597;51.438;7.006;2022-08-14T03:28:06;6.20;;;3.38;;
46008;SDS011;39597;51.438;7.006;2022-08-14T03:30:33;6.53;;;3.15;;
46008;SDS011;39597;51.438;7.006;2022-08-14T03:32:59;5.93;;;3.40;;
46008;SDS011;39597;51.438;7.006;2022-08-14T03:35:26;5.72;;;3.33;;
46008;SDS011;39597;51.438;7.006;2022-08-14T03:37:51;6.72;;;3.45;;
46008;SDS011;39597;51.438;7.006;2022-08-14T03:40:20;6.28;;;3.35;;
46008;SDS011;39597;51.438;7.006;2022-08-14T03:42:46;6.32;;;3.40;;
46008;SDS011;39597;51.438;7.006;2022-08-14T03:45:12;6.95;;;3.63;;
46008;SDS011;39597;51.438;7.006;2022-08-14T03:47:38;5.53;;;3.30;;
46008;SDS011;39597;51.438;7.006;2022-08-14T03:50:08;5.05;;;3.10;;
46008;SDS011;39597;51.438;7.006;2022-08-14T03:52:37;5.40;;;2.97;;
46008;SDS011;39597;51.438;7.006;2022-08-14T03:55:06;5.82;;;3.30;;
46008;SDS011;39597;51.438;7.006;2022-08-14T03:57:34;6.88;;;3.35;;
46008;SDS011;39597;51.438;7.006;2022-08-14T04:00:01;5.72;;;3.30;;
46008;SDS011;39597;51.438;7.006;2022-08-14T04:02:34;8.23;;;3.95;;
46008;SDS011;39597;51.438;7.006;2022-08-14T04:05:00;6.15;;;3.55;;
46008;SDS011;39597;51.438;7.006;2022-08-14T04:07:25;4.97;;;2.90;;
46008;SDS011;39597;51.438;7.006;2022-08-14T04:09:51;6.28;;;3.45;;
46008;SDS011;39597;51.438;7.006;2022-08-14T04:12:17;7.43;;;3.50;;
46008;SDS011;39597;51.438;7.006;2022-08-14T04:14:43;6.93;;;3.75;;
46008;SDS011;39597;51.438;7.006;2022-08-14T04:17:09;6.60;;;3.60;;
46008;SDS011;39597;51.438;7.006;2022-08-14T04:19:35;7.65;;;3.53;;
46008;SDS011;39597;51.438;7.006;2022-08-14T04:22:01;8.25;;;4.05;;
46008;SDS011;39597;51.438;7.006;2022-08-14T04:24:27;6.93;;;3.45;;
46008;SDS011;39597;51.438;7.006;2022-08-14T04:26:53;6.32;;;3.88;;
46008;SDS011;39597;51.438;7.006;2022-08-14T04:29:18;6.65;;;3.47;;
46008;SDS011;39597;51.438;7.006;2022-08-14T04:31:44;6.00;;;3.55;;
46008;SDS011;39597;51.438;7.006;2022-08-14T04:34:10;6.75;;;3.42;;
46008;SDS011;39597;51.438;7.006;2022-08-14T04:36:36;6.18;;;3.50;;
46008;SDS011;39597;51.438;7.006;2022-08-14T04:39:21;6.35;;;3.13;;
46008;SDS011;39597;51.438;7.006;2022-08-14T04:42:05;7.10;;;3.85;;
46008;SDS011;39597;51.438;7.006;2022-08-14T04:44:49;5.78;;;3.47;;
46008;SDS011;39597;51.438;7.006;2022-08-14T04:47:16;6.55;;;3.28;;
46008;SDS011;39597;51.438;7.006;2022-08-14T04:50:01;7.15;;;3.65;;
46008;SDS011;39597;51.438;7.006;2022-08-14T04:52:28;6.13;;;3.33;;
46008;SDS011;39597;51.438;7.006;2022-08-14T04:54:53;6.38;;;3.60;;
46008;SDS011;39597;51.438;7.006;2022-08-14T04:57:19;6.25;;;3.30;;
46008;SDS011;39597;51.438;7.006;2022-08-14T04:59:44;5.20;;;3.10;;
46008;SDS011;39597;51.438;7.006;2022-08-14T05:02:09;5.80;;;3.28;;
46008;SDS011;39597;51.438;7.006;2022-08-14T05:04:35;6.15;;;3.22;;
46008;SDS011;39597;51.438;7.006;2022-08-14T05:07:00;6.30;;;3.88;;
46008;SDS011;39597;51.438;7.006;2022-08-14T05:09:25;7.53;;;3.78;;
46008;SDS011;39597;51.438;7.006;2022-08-14T05:11:51;8.38;;;3.70;;
46008;SDS011;39597;51.438;7.006;2022-08-14T05:14:17;6.05;;;3.42;;
46008;SDS011;39597;51.438;7.006;2022-08-14T05:16:46;7.45;;;3.78;;
46008;SDS011;39597;51.438;7.006;2022-08-14T05:19:12;7.47;;;3.75;;
46008;SDS011;39597;51.438;7.006;2022-08-14T05:21:38;6.22;;;3.45;;
46008;SDS011;39597;51.438;7.006;2022-08-14T05:24:06;6.57;;;4.25;;
46008;SDS011;39597;51.438;7.006;2022-08-14T05:26:32;6.95;;;4.00;;
46008;SDS011;39597;51.438;7.006;2022-08-14T05:28:58;7.00;;;3.47;;
46008;SDS011;39597;51.438;7.006;2022-08-14T05:33:48;7.07;;;3.67;;
46008;SDS011;39597;51.438;7.006;2022-08-14T05:36:14;7.18;;;3.85;;
46008;SDS011;39597;51.438;7.006;2022-08-14T05:41:10;7.82;;;3.78;;
46008;SDS011;39597;51.438;7.006;2022-08-14T05:43:39;8.25;;;3.70;;
46008;SDS011;39597;51.438;7.006;2022-08-14T05:46:06;6.97;;;3.65;;
46008;SDS011;39597;51.438;7.006;2022-08-14T05:48:34;7.60;;;4.20;;
46008;SDS011;39597;51.438;7.006;2022-08-14T05:50:59;6.40;;;3.78;;
46008;SDS011;39597;51.438;7.006;2022-08-14T05:53:25;6.40;;;3.75;;
46008;SDS011;39597;51.438;7.006;2022-08-14T05:55:51;8.27;;;4.13;;
46008;SDS011;39597;51.438;7.006;2022-08-14T05:58:17;8.68;;;3.90;;
46008;SDS011;39597;51.438;7.006;2022-08-14T06:00:44;7.45;;;4.10;;
46008;SDS011;39597;51.438;7.006;2022-08-14T06:03:11;7.38;;;3.88;;
46008;SDS011;39597;51.438;7.006;2022-08-14T06:05:42;6.00;;;3.50;;
46008;SDS011;39597;51.438;7.006;2022-08-14T06:10:49;7.65;;;4.25;;
46008;SDS011;39597;51.438;7.006;2022-08-14T06:13:16;7.22;;;4.63;;
46008;SDS011;39597;51.438;7.006;2022-08-14T06:15:42;7.03;;;4.00;;
46008;SDS011;39597;51.438;7.006;2022-08-14T06:18:08;7.43;;;4.50;;
46008;SDS011;39597;51.438;7.006;2022-08-14T06:20:35;8.10;;;4.32;;
46008;SDS011;39597;51.438;7.006;2022-08-14T06:23:01;9.45;;;4.03;;
46008;SDS011;39597;51.438;7.006;2022-08-14T06:25:26;7.88;;;4.50;;
46008;SDS011;39597;51.438;7.006;2022-08-14T06:27:52;7.20;;;3.80;;
46008;SDS011;39597;51.438;7.006;2022-08-14T06:30:18;7.10;;;4.13;;
46008;SDS011;39597;51.438;7.006;2022-08-14T06:32:47;5.75;;;3.42;;
46008;SDS011;39597;51.438;7.006;2022-08-14T06:35:12;7.10;;;4.18;;
46008;SDS011;39597;51.438;7.006;2022-08-14T06:40:10;6.18;;;4.07;;
46008;SDS011;39597;51.438;7.006;2022-08-14T06:42:37;8.05;;;4.55;;
46008;SDS011;39597;51.438;7.006;2022-08-14T06:45:03;7.80;;;4.32;;
46008;SDS011;39597;51.438;7.006;2022-08-14T06:47:32;6.93;;;3.47;;
46008;SDS011;39597;51.438;7.006;2022-08-14T06:49:59;6.18;;;3.50;;
46008;SDS011;39597;51.438;7.006;2022-08-14T06:52:24;6.43;;;3.95;;
46008;SDS011;39597;51.438;7.006;2022-08-14T06:54:49;6.63;;;4.00;;
46008;SDS011;39597;51.438;7.006;2022-08-14T06:57:14;6.63;;;3.70;;
46008;SDS011;39597;51.438;7.006;2022-08-14T06:59:40;7.78;;;3.83;;
46008;SDS011;39597;51.438;7.006;2022-08-14T07:02:06;6.00;;;3.55;;
46008;SDS011;39597;51.438;7.006;2022-08-14T07:04:50;6.25;;;3.72;;
46008;SDS011;39597;51.438;7.006;2022-08-14T07:07:35;9.70;;;4.30;;
46008;SDS011;39597;51.438;7.006;2022-08-14T07:10:01;6.82;;;3.47;;
46008;SDS011;39597;51.438;7.006;2022-08-14T07:12:29;5.75;;;3.28;;
46008;SDS011;39597;51.438;7.006;2022-08-14T07:14:54;7.50;;;3.60;;
46008;SDS011;39597;51.438;7.006;2022-08-14T07:17:19;7.03;;;3.90;;
46008;SDS011;39597;51.438;7.006;2022-08-14T07:19:44;7.60;;;3.97;;
46008;SDS011;39597;51.438;7.006;2022-08-14T07:22:10;6.20;;;3.70;;
46008;SDS011;39597;51.438;7.006;2022-08-14T07:24:36;7.80;;;4.15;;
46008;SDS011;39597;51.438;7.006;2022-08-14T07:27:02;6.93;;;3.70;;
46008;SDS011;39597;51.438;7.006;2022-08-14T07:29:28;8.38;;;4.32;;
46008;SDS011;39597;51.438;7.006;2022-08-14T07:31:53;7.97;;;3.70;;
46008;SDS011;39597;51.438;7.006;2022-08-14T07:34:18;5.88;;;3.63;;
46008;SDS011;39597;51.438;7.006;2022-08-14T07:36:44;8.65;;;4.50;;
46008;SDS011;39597;51.438;7.006;2022-08-14T07:39:09;5.97;;;3.42;;
46008;SDS011;39597;51.438;7.006;2022-08-14T07:41:34;6.15;;;3.67;;
46008;SDS011;39597;51.438;7.006;2022-08-14T07:44:00;6.50;;;4.05;;
46008;SDS011;39597;51.438;7.006;2022-08-14T07:46:26;6.60;;;3.80;;
46008;SDS011;39597;51.438;7.006;2022-08-14T07:48:52;6.43;;;3.42;;
46008;SDS011;39597;51.438;7.006;2022-08-14T07:51:18;6.10;;;3.60;;
46008;SDS011;39597;51.438;7.006;2022-08-14T07:53:44;7.15;;;3.72;;
46008;SDS011;39597;51.438;7.006;2022-08-14T07:56:09;8.35;;;3.47;;
46008;SDS011;39597;51.438;7.006;2022-08-14T07:58:35;7.43;;;3.83;;
46008;SDS011;39597;51.438;7.006;2022-08-14T08:01:02;6.45;;;3.58;;
46008;SDS011;39597;51.438;7.006;2022-08-14T08:03:30;6.13;;;3.50;;
46008;SDS011;39597;51.438;7.006;2022-08-14T08:05:58;6.57;;;3.97;;
46008;SDS011;39597;51.438;7.006;2022-08-14T08:08:25;6.03;;;3.55;;
46008;SDS011;39597;51.438;7.006;2022-08-14T08:10:54;6.93;;;3.92;;
46008;SDS011;39597;51.438;7.006;2022-08-14T08:13:20;7.35;;;3.85;;
46008;SDS011;39597;51.438;7.006;2022-08-14T08:15:46;6.63;;;3.67;;
46008;SDS011;39597;51.438;7.006;2022-08-14T08:18:14;5.57;;;3.35;;
46008;SDS011;39597;51.438;7.006;2022-08-14T08:20:41;5.70;;;3.42;;
46008;SDS011;39597;51.438;7.006;2022-08-14T08:23:10;6.50;;;3.83;;
46008;SDS011;39597;51.438;7.006;2022-08-14T08:25:38;6.47;;;3.65;;
46008;SDS011;39597;51.438;7.006;2022-08-14T08:30:34;6.22;;;3.60;;
46008;SDS011;39597;51.438;7.006;2022-08-14T08:33:04;5.53;;;3.53;;
46008;SDS011;39597;51.438;7.006;2022-08-14T08:35:32;6.82;;;4.03;;
46008;SDS011;39597;51.438;7.006;2022-08-14T08:38:01;5.72;;;3.30;;
46008;SDS011;39597;51.438;7.006;2022-08-14T08:40:31;7.65;;;4.25;;
46008;SDS011;39597;51.438;7.006;2022-08-14T08:43:00;6.28;;;3.70;;
46008;SDS011;39597;51.438;7.006;2022-08-14T08:45:30;6.35;;;3.60;;
46008;SDS011;39597;51.438;7.006;2022-08-14T08:47:56;6.07;;;3.45;;
46008;SDS011;39597;51.438;7.006;2022-08-14T08:52:54;7.07;;;3.47;;
46008;SDS011;39597;51.438;7.006;2022-08-14T08:57:55;8.25;;;4.03;;
46008;SDS011;39597;51.438;7.006;2022-08-14T09:00:26;5.78;;;3.50;;
46008;SDS011;39597;51.438;7.006;2022-08-14T09:03:02;5.45;;;3.35;;
46008;SDS011;39597;51.438;7.006;2022-08-14T09:05:28;5.30;;;3.40;;
46008;SDS011;39597;51.438;7.006;2022-08-14T09:07:54;5.80;;;3.50;;
46008;SDS011;39597;51.438;7.006;2022-08-14T09:10:33;6.93;;;3.58;;
46008;SDS011;39597;51.438;7.006;2022-08-14T09:12:59;6.00;;;3.53;;
46008;SDS011;39597;51.438;7.006;2022-08-14T09:15:24;6.25;;;3.60;;
46008;SDS011;39597;51.438;7.006;2022-08-14T09:17:51;5.90;;;3.40;;
46008;SDS011;39597;51.438;7.006;2022-08-14T09:20:17;6.45;;;3.42;;
46008;SDS011;39597;51.438;7.006;2022-08-14T09:22:42;5.28;;;3.30;;
46008;SDS011;39597;51.438;7.006;2022-08-14T09:25:09;5.60;;;3.03;;
46008;SDS011;39597;51.438;7.006;2022-08-14T09:27:35;7.65;;;3.70;;
46008;SDS011;39597;51.438;7.006;2022-08-14T09:30:03;6.05;;;3.30;;
46008;SDS011;39597;51.438;7.006;2022-08-14T09:38:06;6.30;;;3.45;;
46008;SDS011;39597;51.438;7.006;2022-08-14T09:44:26;5.18;;;3.20;;
46008;SDS011;39597;51.438;7.006;2022-08-14T09:47:00;6.10;;;3.08;;
46008;SDS011;39597;51.438;7.006;2022-08-14T09:49:30;5.10;;;2.83;;
46008;SDS011;39597;51.438;7.006;2022-08-14T09:54:37;5.35;;;3.17;;
46008;SDS011;39597;51.438;7.006;2022-08-14T09:57:07;4.45;;;2.72;;
46008;SDS011;39597;51.438;7.006;2022-08-14T09:59:44;4.53;;;2.42;;
46008;SDS011;39597;51.438;7.006;2022-08-14T10:05:26;4.70;;;2.67;;
46008;SDS011;39597;51.438;7.006;2022-08-14T10:07:57;4.85;;;2.90;;
46008;SDS011;39597;51.438;7.006;2022-08-14T10:12:52;4.93;;;2.80;;
46008;SDS011;39597;51.438;7.006;2022-08-14T10:15:20;4.38;;;2.53;;
46008;SDS011;39597;51.438;7.006;2022-08-14T10:17:47;5.60;;;3.15;;
46008;SDS011;39597;51.438;7.006;2022-08-14T10:20:14;5.63;;;3.10;;
46008;SDS011;39597;51.438;7.006;2022-08-14T10:22:45;5.20;;;3.10;;
46008;SDS011;39597;51.438;7.006;2022-08-14T10:25:13;6.72;;;3.05;;
46008;SDS011;39597;51.438;7.006;2022-08-14T10:27:41;5.05;;;2.60;;
46008;SDS011;39597;51.438;7.006;2022-08-14T10:30:13;4.80;;;2.75;;
46008;SDS011;39597;51.438;7.006;2022-08-14T10:32:44;4.55;;;2.83;;
46008;SDS011;39597;51.438;7.006;2022-08-14T10:35:11;7.18;;;3.40;;
46008;SDS011;39597;51.438;7.006;2022-08-14T10:37:41;8.00;;;4.90;;
46008;SDS011;39597;51.438;7.006;2022-08-14T10:40:14;4.80;;;2.88;;
46008;SDS011;39597;51.438;7.006;2022-08-14T10:42:41;6.32;;;2.60;;
46008;SDS011;39597;51.438;7.006;2022-08-14T10:45:20;4.60;;;2.70;;
46008;SDS011;39597;51.438;7.006;2022-08-14T10:47:48;4.82;;;2.70;;
46008;SDS011;39597;51.438;7.006;2022-08-14T10:50:14;5.03;;;3.00;;
46008;SDS011;39597;51.438;7.006;2022-08-14T10:52:41;5.00;;;2.90;;
46008;SDS011;39597;51.438;7.006;2022-08-14T10:55:15;4.63;;;2.83;;
46008;SDS011;39597;51.438;7.006;2022-08-14T10:57:46;4.80;;;2.92;;
46008;SDS011;39597;51.438;7.006;2022-08-14T11:00:13;6.30;;;3.10;;
46008;SDS011;39597;51.438;7.006;2022-08-14T11:02:40;5.20;;;2.78;;
46008;SDS011;39597;51.438;7.006;2022-08-14T11:05:07;4.75;;;2.63;;
46008;SDS011;39597;51.438;7.006;2022-08-14T11:07:34;4.95;;;3.03;;
46008;SDS011;39597;51.438;7.006;2022-08-14T11:10:07;6.20;;;3.13;;
46008;SDS011;39597;51.438;7.006;2022-08-14T11:12:42;5.05;;;2.83;;
46008;SDS011;39597;51.438;7.006;2022-08-14T11:15:19;5.25;;;2.65;;
46008;SDS011;39597;51.438;7.006;2022-08-14T11:17:46;5.10;;;2.70;;
46008;SDS011;39597;51.438;7.006;2022-08-14T11:20:15;6.15;;;3.60;;
46008;SDS011;39597;51.438;7.006;2022-08-14T11:22:45;5.05;;;2.80;;
46008;SDS011;39597;51.438;7.006;2022-08-14T11:25:14;4.68;;;2.92;;
46008;SDS011;39597;51.438;7.006;2022-08-14T11:27:41;5.57;;;2.90;;
46008;SDS011;39597;51.438;7.006;2022-08-14T11:30:10;5.65;;;2.80;;
46008;SDS011;39597;51.438;7.006;2022-08-14T11:32:40;4.57;;;2.60;;
46008;SDS011;39597;51.438;7.006;2022-08-14T11:35:12;4.82;;;2.85;;
46008;SDS011;39597;51.438;7.006;2022-08-14T11:37:50;6.38;;;3.20;;
46008;SDS011;39597;51.438;7.006;2022-08-14T11:40:27;6.38;;;2.97;;
46008;SDS011;39597;51.438;7.006;2022-08-14T11:42:54;6.07;;;3.20;;
46008;SDS011;39597;51.438;7.006;2022-08-14T11:45:24;6.28;;;3.25;;
46008;SDS011;39597;51.438;7.006;2022-08-14T11:47:52;5.30;;;3.03;;
46008;SDS011;39597;51.438;7.006;2022-08-14T11:50:21;5.78;;;3.15;;
46008;SDS011;39597;51.438;7.006;2022-08-14T11:52:48;5.97;;;3.13;;
46008;SDS011;39597;51.438;7.006;2022-08-14T11:55:16;5.55;;;2.88;;
46008;SDS011;39597;51.438;7.006;2022-08-14T11:57:42;4.15;;;2.38;;
46008;SDS011;39597;51.438;7.006;2022-08-14T12:00:09;5.00;;;2.90;;
46008;SDS011;39597;51.438;7.006;2022-08-14T12:02:47;4.88;;;3.03;;
46008;SDS011;39597;51.438;7.006;2022-08-14T12:05:14;5.22;;;3.10;;
46008;SDS011;39597;51.438;7.006;2022-08-14T12:07:46;5.03;;;2.83;;
46008;SDS011;39597;51.438;7.006;2022-08-14T12:10:13;5.07;;;3.00;;
46008;SDS011;39597;51.438;7.006;2022-08-14T12:12:41;4.40;;;2.90;;
46008;SDS011;39597;51.438;7.006;2022-08-14T12:15:07;5.15;;;3.05;;
46008;SDS011;39597;51.438;7.006;2022-08-14T12:17:42;4.53;;;2.70;;
46008;SDS011;39597;51.438;7.006;2022-08-14T12:20:09;5.50;;;3.03;;
46008;SDS011;39597;51.438;7.006;2022-08-14T12:22:36;4.93;;;2.40;;
46008;SDS011;39597;51.438;7.006;2022-08-14T12:25:08;5.90;;;3.20;;
46008;SDS011;39597;51.438;7.006;2022-08-14T12:27:46;7.97;;;3.00;;
46008;SDS011;39597;51.438;7.006;2022-08-14T12:30:28;4.93;;;2.58;;
46008;SDS011;39597;51.438;7.006;2022-08-14T12:32:54;4.47;;;2.53;;
46008;SDS011;39597;51.438;7.006;2022-08-14T12:35:20;4.82;;;2.95;;
46008;SDS011;39597;51.438;7.006;2022-08-14T12:37:50;4.93;;;2.85;;
46008;SDS011;39597;51.438;7.006;2022-08-14T12:40:16;5.88;;;2.67;;
46008;SDS011;39597;51.438;7.006;2022-08-14T12:42:47;4.80;;;2.65;;
46008;SDS011;39597;51.438;7.006;2022-08-14T12:45:13;6.22;;;2.85;;
46008;SDS011;39597;51.438;7.006;2022-08-14T12:47:41;5.60;;;3.03;;
46008;SDS011;39597;51.438;7.006;2022-08-14T12:50:10;5.05;;;2.90;;
46008;SDS011;39597;51.438;7.006;2022-08-14T12:52:36;4.80;;;2.72;;
46008;SDS011;39597;51.438;7.006;2022-08-14T12:55:09;4.90;;;2.63;;
46008;SDS011;39597;51.438;7.006;2022-08-14T12:57:41;5.18;;;2.50;;
46008;SDS011;39597;51.438;7.006;2022-08-14T13:00:10;4.95;;;2.65;;
46008;SDS011;39597;51.438;7.006;2022-08-14T13:02:43;5.03;;;2.72;;
46008;SDS011;39597;51.438;7.006;2022-08-14T13:05:11;4.93;;;2.70;;
46008;SDS011;39597;51.438;7.006;2022-08-14T13:07:38;4.53;;;2.40;;
46008;SDS011;39597;51.438;7.006;2022-08-14T13:10:05;4.15;;;2.45;;
46008;SDS011;39597;51.438;7.006;2022-08-14T13:12:32;4.90;;;2.83;;
46008;SDS011;39597;51.438;7.006;2022-08-14T13:14:58;4.65;;;2.70;;
46008;SDS011;39597;51.438;7.006;2022-08-14T13:17:25;4.40;;;2.38;;
46008;SDS011;39597;51.438;7.006;2022-08-14T13:19:52;4.00;;;2.17;;
46008;SDS011;39597;51.438;7.006;2022-08-14T13:22:23;3.55;;;2.08;;
46008;SDS011;39597;51.438;7.006;2022-08-14T13:24:52;4.35;;;2.58;;
46008;SDS011;39597;51.438;7.006;2022-08-14T13:27:22;4.53;;;2.30;;
46008;SDS011;39597;51.438;7.006;2022-08-14T13:29:51;6.38;;;2.88;;
46008;SDS011;39597;51.438;7.006;2022-08-14T13:32:20;4.35;;;2.40;;
46008;SDS011;39597;51.438;7.006;2022-08-14T13:34:49;4.00;;;2.30;;
46008;SDS011;39597;51.438;7.006;2022-08-14T13:37:15;4.22;;;2.38;;
46008;SDS011;39597;51.438;7.006;2022-08-14T13:39:45;4.00;;;2.00;;
46008;SDS011;39597;51.438;7.006;2022-08-14T13:42:15;5.07;;;2.47;;
46008;SDS011;39597;51.438;7.006;2022-08-14T13:44:42;4.18;;;2.50;;
46008;SDS011;39597;51.438;7.006;2022-08-14T13:47:12;3.80;;;2.17;;
46008;SDS011;39597;51.438;7.006;2022-08-14T13:49:38;3.88;;;2.03;;
46008;SDS011;39597;51.438;7.006;2022-08-14T13:52:04;4.22;;;2.42;;
46008;SDS011;39597;51.438;7.006;2022-08-14T13:54:33;4.15;;;2.20;;
46008;SDS011;39597;51.438;7.006;2022-08-14T13:57:00;4.60;;;1.88;;
46008;SDS011;39597;51.438;7.006;2022-08-14T13:59:28;5.75;;;2.60;;
46008;SDS011;39597;51.438;7.006;2022-08-14T14:01:55;4.55;;;2.08;;
46008;SDS011;39597;51.438;7.006;2022-08-14T14:04:28;4.90;;;2.50;;
46008;SDS011;39597;51.438;7.006;2022-08-14T14:06:55;4.47;;;2.58;;
46008;SDS011;39597;51.438;7.006;2022-08-14T14:09:27;4.15;;;2.22;;
46008;SDS011;39597;51.438;7.006;2022-08-14T14:11:53;4.32;;;2.40;;
46008;SDS011;39597;51.438;7.006;2022-08-14T14:14:25;6.10;;;2.47;;
46008;SDS011;39597;51.438;7.006;2022-08-14T14:16:51;4.15;;;2.40;;
46008;SDS011;39597;51.438;7.006;2022-08-14T14:19:20;4.65;;;2.20;;
46008;SDS011;39597;51.438;7.006;2022-08-14T14:21:50;4.22;;;2.47;;
46008;SDS011;39597;51.438;7.006;2022-08-14T14:24:16;4.50;;;2.55;;
46008;SDS011;39597;51.438;7.006;2022-08-14T14:26:44;4.65;;;2.33;;
46008;SDS011;39597;51.438;7.006;2022-08-14T14:29:12;4.18;;;2.30;;
46008;SDS011;39597;51.438;7.006;2022-08-14T14:31:39;5.03;;;2.50;;
46008;SDS011;39597;51.438;7.006;2022-08-14T14:34:05;4.45;;;2.40;;
46008;SDS011;39597;51.438;7.006;2022-08-14T14:36:36;4.07;;;2.22;;
46008;SDS011;39597;51.438;7.006;2022-08-14T14:39:04;4.65;;;2.60;;
46008;SDS011;39597;51.438;7.006;2022-08-14T14:41:32;5.25;;;2.03;;
46008;SDS011;39597;51.438;7.006;2022-08-14T14:44:03;5.13;;;2.55;;
46008;SDS011;39597;51.438;7.006;2022-08-14T14:46:30;4.38;;;2.45;;
46008;SDS011;39597;51.438;7.006;2022-08-14T14:49:00;4.50;;;2.45;;
46008;SDS011;39597;51.438;7.006;2022-08-14T14:51:27;7.07;;;2.63;;
46008;SDS011;39597;51.438;7.006;2022-08-14T14:53:52;4.28;;;2.30;;
46008;SDS011;39597;51.438;7.006;2022-08-14T14:56:19;4.55;;;2.53;;
46008;SDS011;39597;51.438;7.006;2022-08-14T14:58:44;4.68;;;2.45;;
46008;SDS011;39597;51.438;7.006;2022-08-14T15:01:10;4.35;;;2.45;;
46008;SDS011;39597;51.438;7.006;2022-08-14T15:03:39;4.75;;;2.50;;
46008;SDS011;39597;51.438;7.006;2022-08-14T15:06:08;4.20;;;2.35;;
46008;SDS011;39597;51.438;7.006;2022-08-14T15:08:33;3.90;;;2.15;;
46008;SDS011;39597;51.438;7.006;2022-08-14T15:10:58;4.90;;;2.42;;
46008;SDS011;39597;51.438;7.006;2022-08-14T15:13:25;4.97;;;2.45;;
46008;SDS011;39597;51.438;7.006;2022-08-14T15:15:51;4.03;;;2.17;;
46008;SDS011;39597;51.438;7.006;2022-08-14T15:18:19;4.65;;;2.42;;
46008;SDS011;39597;51.438;7.006;2022-08-14T15:20:45;4.75;;;2.50;;
46008;SDS011;39597;51.438;7.006;2022-08-14T15:23:11;4.43;;;2.47;;
46008;SDS011;39597;51.438;7.006;2022-08-14T15:25:36;4.13;;;2.28;;
46008;SDS011;39597;51.438;7.006;2022-08-14T15:28:02;4.18;;;2.20;;
46008;SDS011;39597;51.438;7.006;2022-08-14T15:30:27;6.25;;;2.95;;